sensor_id;sensor_type;location;lat;lon;timestamp;pressure;altitude;pressure_sealevel;temperature;humidity
6144;BME280;3103;49.492;8.474;2023-08-20T00:01:05;100852.78;;;27.16;63.40
6144;BME280;3103;49.492;8.474;2023-08-20T00:03:32;100842.06;;;27.02;63.61
6144;BME280;3103;49.492;8.474;2023-08-20T00:05:59;100851.41;;;27.10;63.73
6144;BME280;3103;49.492;8.474;2023-08-20T00:08:26;100848.06;;;27.04;64.00
6144;BME280;3103;49.492;8.474;2023-08-20T00:10:53;100855.66;;;27.07;64.06
6144;BME280;3103;49.492;8.474;2023-08-20T00:13:20;100857.19;;;26.96;64.61
6144;BME280;3103;49.492;8.474;2023-08-20T00:15:48;100857.19;;;26.96;65.14
6144;BME280;3103;49.492;8.474;2023-08-20T00:18:15;100860.25;;;27.03;64.96
6144;BME280;3103;49.492;8.474;2023-08-20T00:20:42;100853.38;;;26.88;65.55
6144;BME280;3103;49.492;8.474;2023-08-20T00:23:12;100855.25;;;26.97;66.03
6144;BME280;3103;49.492;8.474;2023-08-20T00:25:39;100852.16;;;26.98;66.10
6144;BME280;3103;49.492;8.474;2023-08-20T00:28:06;100847.84;;;26.88;66.50
6144;BME280;3103;49.492;8.474;2023-08-20T00:30:33;100857.41;;;26.91;66.87
6144;BME280;3103;49.492;8.474;2023-08-20T00:33:00;100863.75;;;26.91;66.74
6144;BME280;3103;49.492;8.474;2023-08-20T00:35:27;100857.53;;;26.95;66.75
6144;BME280;3103;49.492;8.474;2023-08-20T00:37:54;100859.72;;;26.89;67.28
6144;BME280;3103;49.492;8.474;2023-08-20T00:40:21;100851.97;;;26.82;67.48
6144;BME280;3103;49.492;8.474;2023-08-20T00:42:48;100861.31;;;26.90;67.46
6144;BME280;3103;49.492;8.474;2023-08-20T00:45:16;100867.66;;;26.90;67.20
6144;BME280;3103;49.492;8.474;2023-08-20T00:47:45;100861.78;;;26.92;67.25
6144;BME280;3103;49.492;8.474;2023-08-20T00:50:13;100863.47;;;26.84;67.19
6144;BME280;3103;49.492;8.474;2023-08-20T00:52:41;100868.97;;;26.84;67.17
6144;BME280;3103;49.492;8.474;2023-08-20T00:55:09;100863.13;;;26.86;66.75
6144;BME280;3103;49.492;8.474;2023-08-20T00:57:38;100875.75;;;26.75;66.71
6144;BME280;3103;49.492;8.474;2023-08-20T01:00:07;100875.94;;;26.70;66.69
6144;BME280;3103;49.492;8.474;2023-08-20T01:02:39;100878.63;;;26.57;67.30
6144;BME280;3103;49.492;8.474;2023-08-20T01:05:11;100880.38;;;26.62;67.10
6144;BME280;3103;49.492;8.474;2023-08-20T01:08:00;100881.84;;;26.59;67.13
6144;BME280;3103;49.492;8.474;2023-08-20T01:10:36;100874.19;;;26.65;66.47
6144;BME280;3103;49.492;8.474;2023-08-20T01:13:05;100869.03;;;26.63;66.24
6144;BME280;3103;49.492;8.474;2023-08-20T01:15:32;100869.94;;;26.68;66.38
6144;BME280;3103;49.492;8.474;2023-08-20T01:17:59;100870.81;;;26.59;66.80
6144;BME280;3103;49.492;8.474;2023-08-20T01:20:33;100863.50;;;26.63;66.62
6144;BME280;3103;49.492;8.474;2023-08-20T01:26:02;100864.19;;;26.60;66.58
6144;BME280;3103;49.492;8.474;2023-08-20T01:28:35;100865.25;;;26.47;66.95
6144;BME280;3103;49.492;8.474;2023-08-20T01:31:03;100859.88;;;26.51;66.90
6144;BME280;3103;49.492;8.474;2023-08-20T01:33:31;100853.09;;;26.48;66.59
6144;BME280;3103;49.492;8.474;2023-08-20T01:35:58;100849.31;;;26.53;66.71
6144;BME280;3103;49.492;8.474;2023-08-20T01:38:25;100854.03;;;26.52;66.54
6144;BME280;3103;49.492;8.474;2023-08-20T01:40:52;100844.75;;;26.36;66.70
6144;BME280;3103;49.492;8.474;2023-08-20T01:43:20;100845.34;;;26.42;66.21
6144;BME280;3103;49.492;8.474;2023-08-20T01:45:46;100844.56;;;26.41;65.66
6144;BME280;3103;49.492;8.474;2023-08-20T01:48:14;100836.41;;;26.45;65.08
6144;BME280;3103;49.492;8.474;2023-08-20T01:50:42;100843.88;;;26.44;64.93
6144;BME280;3103;49.492;8.474;2023-08-20T01:53:09;100829.50;;;26.39;64.80
6144;BME280;3103;49.492;8.474;2023-08-20T01:55:36;100831.78;;;26.37;65.13
6144;BME280;3103;49.492;8.474;2023-08-20T01:58:03;100837.47;;;26.31;64.71
6144;BME280;3103;49.492;8.474;2023-08-20T02:00:30;100837.66;;;26.26;65.07
6144;BME280;3103;49.492;8.474;2023-08-20T02:02:57;100845.41;;;26.33;64.93
6144;BME280;3103;49.492;8.474;2023-08-20T02:05:25;100838.75;;;26.34;64.77
6144;BME280;3103;49.492;8.474;2023-08-20T02:07:53;100833.44;;;26.29;64.60
6144;BME280;3103;49.492;8.474;2023-08-20T02:10:20;100827.47;;;26.27;64.62
6144;BME280;3103;49.492;8.474;2023-08-20T02:12:47;100833.31;;;26.25;64.83
6144;BME280;3103;49.492;8.474;2023-08-20T02:15:16;100843.91;;;26.15;64.84
6144;BME280;3103;49.492;8.474;2023-08-20T02:17:43;100851.47;;;26.18;64.95
6144;BME280;3103;49.492;8.474;2023-08-20T02:20:10;100850.88;;;26.12;65.41
6144;BME280;3103;49.492;8.474;2023-08-20T02:22:37;100845.91;;;26.06;65.63
6144;BME280;3103;49.492;8.474;2023-08-20T02:25:05;100844.69;;;26.15;65.54
6144;BME280;3103;49.492;8.474;2023-08-20T02:27:32;100844.66;;;26.24;65.32
6144;BME280;3103;49.492;8.474;2023-08-20T02:29:59;100846.19;;;26.13;65.26
6144;BME280;3103;49.492;8.474;2023-08-20T02:32:29;100857.75;;;26.06;65.87
6144;BME280;3103;49.492;8.474;2023-08-20T02:34:58;100852.06;;;26.02;65.56
6144;BME280;3103;49.492;8.474;2023-08-20T02:37:25;100853.84;;;26.07;65.66
6144;BME280;3103;49.492;8.474;2023-08-20T02:39:52;100854.44;;;26.13;65.81
6144;BME280;3103;49.492;8.474;2023-08-20T02:42:19;100858.94;;;26.17;65.92
6144;BME280;3103;49.492;8.474;2023-08-20T02:44:46;100851.69;;;26.13;66.14
6144;BME280;3103;49.492;8.474;2023-08-20T02:47:13;100857.66;;;26.15;66.37
6144;BME280;3103;49.492;8.474;2023-08-20T02:49:39;100861.28;;;26.07;66.54
6144;BME280;3103;49.492;8.474;2023-08-20T02:52:06;100859.06;;;26.00;67.65
6144;BME280;3103;49.492;8.474;2023-08-20T02:54:33;100864.56;;;26.00;68.05
6144;BME280;3103;49.492;8.474;2023-08-20T02:57:00;100859.97;;;25.83;68.82
6144;BME280;3103;49.492;8.474;2023-08-20T02:59:27;100855.88;;;25.89;68.31
6144;BME280;3103;49.492;8.474;2023-08-20T03:01:54;100853.56;;;26.00;67.42
6144;BME280;3103;49.492;8.474;2023-08-20T03:04:21;100859.72;;;25.97;67.38
6144;BME280;3103;49.492;8.474;2023-08-20T03:06:48;100845.50;;;25.95;67.27
6144;BME280;3103;49.492;8.474;2023-08-20T03:09:15;100856.84;;;25.93;67.79
6144;BME280;3103;49.492;8.474;2023-08-20T03:11:42;100857.34;;;25.87;67.84
6144;BME280;3103;49.492;8.474;2023-08-20T03:14:10;100859.16;;;25.83;68.09
6144;BME280;3103;49.492;8.474;2023-08-20T03:16:37;100852.19;;;25.85;68.47
6144;BME280;3103;49.492;8.474;2023-08-20T03:19:04;100849.44;;;25.85;68.32
6144;BME280;3103;49.492;8.474;2023-08-20T03:21:30;100851.50;;;25.88;68.36
6144;BME280;3103;49.492;8.474;2023-08-20T03:23:58;100853.50;;;25.79;68.85
6144;BME280;3103;49.492;8.474;2023-08-20T03:26:25;100856.41;;;25.83;68.92
6144;BME280;3103;49.492;8.474;2023-08-20T03:28:51;100863.66;;;25.87;69.06
6144;BME280;3103;49.492;8.474;2023-08-20T03:31:18;100859.50;;;25.81;69.24
6144;BME280;3103;49.492;8.474;2023-08-20T03:33:46;100855.63;;;25.73;69.99
6144;BME280;3103;49.492;8.474;2023-08-20T03:36:13;100857.25;;;25.74;69.92
6144;BME280;3103;49.492;8.474;2023-08-20T03:38:41;100856.94;;;25.67;70.11
6144;BME280;3103;49.492;8.474;2023-08-20T03:41:08;100846.72;;;25.77;69.67
6144;BME280;3103;49.492;8.474;2023-08-20T03:43:35;100847.72;;;25.72;69.43
6144;BME280;3103;49.492;8.474;2023-08-20T03:46:02;100850.00;;;25.70;69.75
6144;BME280;3103;49.492;8.474;2023-08-20T03:48:29;100857.09;;;25.71;69.84
6144;BME280;3103;49.492;8.474;2023-08-20T03:50:56;100856.28;;;25.70;70.28
6144;BME280;3103;49.492;8.474;2023-08-20T03:53:23;100855.50;;;25.70;70.31
6144;BME280;3103;49.492;8.474;2023-08-20T03:55:50;100856.94;;;25.67;70.54
6144;BME280;3103;49.492;8.474;2023-08-20T03:58:17;100864.88;;;25.69;70.48
6144;BME280;3103;49.492;8.474;2023-08-20T04:00:44;100863.09;;;25.64;71.16
6144;BME280;3103;49.492;8.474;2023-08-20T04:03:11;100859.72;;;25.59;71.40
6144;BME280;3103;49.492;8.474;2023-08-20T04:05:38;100859.13;;;25.44;71.65
6144;BME280;3103;49.492;8.474;2023-08-20T04:08:06;100864.78;;;25.48;72.12
6144;BME280;3103;49.492;8.474;2023-08-20T04:10:33;100865.59;;;25.49;72.20
6144;BME280;3103;49.492;8.474;2023-08-20T04:13:00;100863.78;;;25.53;72.13
6144;BME280;3103;49.492;8.474;2023-08-20T04:15:27;100861.31;;;25.60;72.20
6144;BME280;3103;49.492;8.474;2023-08-20T04:17:54;100862.78;;;25.57;72.15
6144;BME280;3103;49.492;8.474;2023-08-20T04:20:21;100861.19;;;25.56;72.57
6144;BME280;3103;49.492;8.474;2023-08-20T04:22:48;100867.81;;;25.55;72.53
6144;BME280;3103;49.492;8.474;2023-08-20T04:25:15;100864.00;;;25.39;73.06
6144;BME280;3103;49.492;8.474;2023-08-20T04:27:42;100871.59;;;25.42;73.12
6144;BME280;3103;49.492;8.474;2023-08-20T04:30:10;100866.63;;;25.18;73.82
6144;BME280;3103;49.492;8.474;2023-08-20T04:32:37;100866.97;;;25.25;73.94
6144;BME280;3103;49.492;8.474;2023-08-20T04:35:04;100866.59;;;25.35;74.40
6144;BME280;3103;49.492;8.474;2023-08-20T04:37:32;100869.19;;;25.40;73.81
6144;BME280;3103;49.492;8.474;2023-08-20T04:40:01;100867.38;;;25.44;73.90
6144;BME280;3103;49.492;8.474;2023-08-20T04:42:31;100870.81;;;25.33;74.64
6144;BME280;3103;49.492;8.474;2023-08-20T04:44:59;100878.38;;;25.44;73.96
6144;BME280;3103;49.492;8.474;2023-08-20T04:47:29;100883.59;;;25.37;73.95
6144;BME280;3103;49.492;8.474;2023-08-20T04:49:56;100885.34;;;25.33;74.00
6144;BME280;3103;49.492;8.474;2023-08-20T04:52:23;100893.97;;;25.14;74.63
6144;BME280;3103;49.492;8.474;2023-08-20T04:54:50;100889.09;;;25.29;74.15
6144;BME280;3103;49.492;8.474;2023-08-20T04:57:20;100889.56;;;25.39;73.58
6144;BME280;3103;49.492;8.474;2023-08-20T04:59:48;100898.81;;;25.35;73.53
6144;BME280;3103;49.492;8.474;2023-08-20T05:02:22;100898.44;;;25.45;73.27
6144;BME280;3103;49.492;8.474;2023-08-20T05:04:53;100905.13;;;25.35;73.85
6144;BME280;3103;49.492;8.474;2023-08-20T05:07:20;100905.25;;;25.39;73.89
6144;BME280;3103;49.492;8.474;2023-08-20T05:09:47;100904.13;;;25.31;74.38
6144;BME280;3103;49.492;8.474;2023-08-20T05:12:14;100905.13;;;25.35;74.69
6144;BME280;3103;49.492;8.474;2023-08-20T05:14:41;100909.34;;;25.24;75.13
6144;BME280;3103;49.492;8.474;2023-08-20T05:17:08;100918.22;;;25.30;75.37
6144;BME280;3103;49.492;8.474;2023-08-20T05:19:34;100922.25;;;25.32;75.15
6144;BME280;3103;49.492;8.474;2023-08-20T05:22:01;100920.97;;;25.30;75.53
6144;BME280;3103;49.492;8.474;2023-08-20T05:24:32;100923.38;;;25.40;75.45
6144;BME280;3103;49.492;8.474;2023-08-20T05:27:06;100918.81;;;25.53;74.95
6144;BME280;3103;49.492;8.474;2023-08-20T05:29:33;100925.25;;;25.57;74.71
6144;BME280;3103;49.492;8.474;2023-08-20T05:32:00;100917.97;;;25.61;74.71
6144;BME280;3103;49.492;8.474;2023-08-20T05:34:27;100919.75;;;25.65;74.93
6144;BME280;3103;49.492;8.474;2023-08-20T05:36:55;100926.53;;;25.68;74.69
6144;BME280;3103;49.492;8.474;2023-08-20T05:39:22;100927.38;;;25.68;74.60
6144;BME280;3103;49.492;8.474;2023-08-20T05:41:52;100925.91;;;25.62;74.37
6144;BME280;3103;49.492;8.474;2023-08-20T05:44:21;100923.78;;;25.68;73.49
6144;BME280;3103;49.492;8.474;2023-08-20T05:46:48;100929.78;;;25.79;72.93
6144;BME280;3103;49.492;8.474;2023-08-20T05:49:17;100930.03;;;25.86;72.44
6144;BME280;3103;49.492;8.474;2023-08-20T05:51:44;100928.78;;;25.83;72.04
6144;BME280;3103;49.492;8.474;2023-08-20T05:54:11;100929.06;;;25.90;71.28
6144;BME280;3103;49.492;8.474;2023-08-20T05:56:38;100929.88;;;25.91;71.17
6144;BME280;3103;49.492;8.474;2023-08-20T05:59:05;100942.44;;;26.00;70.67
6144;BME280;3103;49.492;8.474;2023-08-20T06:01:32;100939.34;;;26.11;70.44
6144;BME280;3103;49.492;8.474;2023-08-20T06:03:59;100944.81;;;26.19;70.00
6144;BME280;3103;49.492;8.474;2023-08-20T06:06:27;100943.59;;;26.29;69.85
6144;BME280;3103;49.492;8.474;2023-08-20T06:08:54;100941.03;;;26.24;69.74
6144;BME280;3103;49.492;8.474;2023-08-20T06:11:35;100942.94;;;26.32;69.10
6144;BME280;3103;49.492;8.474;2023-08-20T06:14:02;100940.28;;;26.44;68.91
6144;BME280;3103;49.492;8.474;2023-08-20T06:16:29;100949.56;;;26.31;69.12
6144;BME280;3103;49.492;8.474;2023-08-20T06:18:57;100946.00;;;26.39;69.31
6144;BME280;3103;49.492;8.474;2023-08-20T06:21:24;100953.47;;;26.59;68.63
6144;BME280;3103;49.492;8.474;2023-08-20T06:23:51;100956.31;;;26.72;68.17
6144;BME280;3103;49.492;8.474;2023-08-20T06:26:18;100961.09;;;26.62;68.86
6144;BME280;3103;49.492;8.474;2023-08-20T06:28:46;100967.00;;;26.94;67.43
6144;BME280;3103;49.492;8.474;2023-08-20T06:31:13;100973.31;;;27.03;67.59
6144;BME280;3103;49.492;8.474;2023-08-20T06:33:40;100965.75;;;27.12;67.57
6144;BME280;3103;49.492;8.474;2023-08-20T06:36:07;100961.78;;;27.22;67.32
6144;BME280;3103;49.492;8.474;2023-08-20T06:38:34;100962.63;;;27.35;66.76
6144;BME280;3103;49.492;8.474;2023-08-20T06:41:00;100959.66;;;27.40;66.41
6144;BME280;3103;49.492;8.474;2023-08-20T06:43:27;100960.44;;;27.40;66.30
6144;BME280;3103;49.492;8.474;2023-08-20T06:45:54;100961.03;;;27.13;67.40
6144;BME280;3103;49.492;8.474;2023-08-20T06:48:21;100963.88;;;27.04;67.88
6144;BME280;3103;49.492;8.474;2023-08-20T06:50:50;100954.03;;;26.74;68.52
6144;BME280;3103;49.492;8.474;2023-08-20T06:53:16;100960.72;;;26.43;70.27
6144;BME280;3103;49.492;8.474;2023-08-20T06:55:43;100958.84;;;26.26;70.89
6144;BME280;3103;49.492;8.474;2023-08-20T06:58:10;100959.56;;;26.15;71.35
6144;BME280;3103;49.492;8.474;2023-08-20T07:00:37;100957.09;;;26.22;71.57
6144;BME280;3103;49.492;8.474;2023-08-20T07:03:04;100960.88;;;26.47;70.93
6144;BME280;3103;49.492;8.474;2023-08-20T07:05:31;100967.81;;;26.74;70.26
6144;BME280;3103;49.492;8.474;2023-08-20T07:07:58;100961.31;;;26.78;69.59
6144;BME280;3103;49.492;8.474;2023-08-20T07:10:25;100968.59;;;27.04;68.80
6144;BME280;3103;49.492;8.474;2023-08-20T07:12:52;100966.91;;;27.11;68.21
6144;BME280;3103;49.492;8.474;2023-08-20T07:15:18;100970.78;;;26.89;68.98
6144;BME280;3103;49.492;8.474;2023-08-20T07:17:45;100973.94;;;26.79;69.46
6144;BME280;3103;49.492;8.474;2023-08-20T07:20:12;100974.22;;;26.27;72.05
6144;BME280;3103;49.492;8.474;2023-08-20T07:22:39;100973.81;;;26.76;70.35
6144;BME280;3103;49.492;8.474;2023-08-20T07:25:06;100969.91;;;26.98;69.11
6144;BME280;3103;49.492;8.474;2023-08-20T07:27:33;100973.09;;;27.41;67.71
6144;BME280;3103;49.492;8.474;2023-08-20T07:30:00;100976.25;;;27.52;67.18
6144;BME280;3103;49.492;8.474;2023-08-20T07:32:30;100977.44;;;27.63;66.26
6144;BME280;3103;49.492;8.474;2023-08-20T07:34:57;100986.38;;;28.05;64.97
6144;BME280;3103;49.492;8.474;2023-08-20T07:37:24;100983.28;;;28.19;64.16
6144;BME280;3103;49.492;8.474;2023-08-20T07:39:51;100983.63;;;28.42;63.47
6144;BME280;3103;49.492;8.474;2023-08-20T07:42:18;100988.59;;;28.61;62.73
6144;BME280;3103;49.492;8.474;2023-08-20T07:44:45;100973.50;;;28.22;63.75
6144;BME280;3103;49.492;8.474;2023-08-20T07:47:11;100987.09;;;28.51;63.08
6144;BME280;3103;49.492;8.474;2023-08-20T07:49:39;100987.59;;;28.81;61.94
6144;BME280;3103;49.492;8.474;2023-08-20T07:52:06;100988.41;;;28.94;61.62
6144;BME280;3103;49.492;8.474;2023-08-20T07:54:33;100992.03;;;29.10;60.98
6144;BME280;3103;49.492;8.474;2023-08-20T07:56:59;100982.72;;;29.15;60.63
6144;BME280;3103;49.492;8.474;2023-08-20T07:59:28;100991.56;;;29.20;60.50
6144;BME280;3103;49.492;8.474;2023-08-20T08:01:55;100992.91;;;29.26;60.34
6144;BME280;3103;49.492;8.474;2023-08-20T08:04:22;100997.13;;;29.36;60.30
6144;BME280;3103;49.492;8.474;2023-08-20T08:06:48;100999.72;;;29.29;59.78
6144;BME280;3103;49.492;8.474;2023-08-20T08:09:27;100995.97;;;29.37;59.72
6144;BME280;3103;49.492;8.474;2023-08-20T08:11:54;100999.25;;;29.55;59.47
6144;BME280;3103;49.492;8.474;2023-08-20T08:14:21;101001.50;;;29.49;59.12
6144;BME280;3103;49.492;8.474;2023-08-20T08:16:48;101001.59;;;29.69;58.31
6144;BME280;3103;49.492;8.474;2023-08-20T08:19:16;100996.88;;;29.69;58.41
6144;BME280;3103;49.492;8.474;2023-08-20T08:21:44;100995.75;;;29.86;57.71
6144;BME280;3103;49.492;8.474;2023-08-20T08:24:11;100998.59;;;29.46;58.53
6144;BME280;3103;49.492;8.474;2023-08-20T08:26:39;100990.53;;;29.69;57.71
6144;BME280;3103;49.492;8.474;2023-08-20T08:29:07;101001.97;;;29.83;57.13
6144;BME280;3103;49.492;8.474;2023-08-20T08:31:35;101002.47;;;30.01;56.43
6144;BME280;3103;49.492;8.474;2023-08-20T08:34:02;101000.59;;;30.21;56.42
6144;BME280;3103;49.492;8.474;2023-08-20T08:36:30;101002.91;;;30.19;56.32
6144;BME280;3103;49.492;8.474;2023-08-20T08:38:57;101005.41;;;30.08;56.02
6144;BME280;3103;49.492;8.474;2023-08-20T08:41:25;101006.38;;;30.00;56.64
6144;BME280;3103;49.492;8.474;2023-08-20T08:43:53;101012.38;;;30.33;55.28
6144;BME280;3103;49.492;8.474;2023-08-20T08:46:22;101002.00;;;30.46;54.98
6144;BME280;3103;49.492;8.474;2023-08-20T08:48:51;101009.63;;;30.33;55.03
6144;BME280;3103;49.492;8.474;2023-08-20T08:51:19;101009.88;;;30.44;54.63
6144;BME280;3103;49.492;8.474;2023-08-20T08:53:46;101008.25;;;30.43;54.92
6144;BME280;3103;49.492;8.474;2023-08-20T08:56:13;101013.72;;;30.08;55.90
6144;BME280;3103;49.492;8.474;2023-08-20T08:58:40;101008.69;;;29.98;56.11
6144;BME280;3103;49.492;8.474;2023-08-20T09:01:07;101007.25;;;29.72;56.75
6144;BME280;3103;49.492;8.474;2023-08-20T09:03:34;101012.50;;;30.05;56.26
6144;BME280;3103;49.492;8.474;2023-08-20T09:06:08;101008.06;;;30.04;56.48
6144;BME280;3103;49.492;8.474;2023-08-20T09:08:35;101015.44;;;30.12;55.40
6144;BME280;3103;49.492;8.474;2023-08-20T09:11:02;101024.56;;;30.29;55.28
6144;BME280;3103;49.492;8.474;2023-08-20T09:13:36;101019.88;;;30.01;55.59
6144;BME280;3103;49.492;8.474;2023-08-20T09:16:08;101013.19;;;30.18;55.19
6144;BME280;3103;49.492;8.474;2023-08-20T09:18:44;101023.03;;;30.31;54.36
6144;BME280;3103;49.492;8.474;2023-08-20T09:21:12;101020.34;;;30.35;54.32
6144;BME280;3103;49.492;8.474;2023-08-20T09:23:40;101005.84;;;30.41;53.80
6144;BME280;3103;49.492;8.474;2023-08-20T09:26:07;101008.34;;;30.47;54.62
6144;BME280;3103;49.492;8.474;2023-08-20T09:29:00;101010.22;;;30.58;54.16
6144;BME280;3103;49.492;8.474;2023-08-20T09:31:39;101012.72;;;30.63;54.46
6144;BME280;3103;49.492;8.474;2023-08-20T09:34:12;101009.38;;;30.73;54.07
6144;BME280;3103;49.492;8.474;2023-08-20T09:36:39;101005.31;;;30.87;53.43
6144;BME280;3103;49.492;8.474;2023-08-20T09:39:06;101001.06;;;30.73;52.74
6144;BME280;3103;49.492;8.474;2023-08-20T09:41:33;101001.25;;;30.65;53.20
6144;BME280;3103;49.492;8.474;2023-08-20T09:44:04;101014.25;;;30.45;53.56
6144;BME280;3103;49.492;8.474;2023-08-20T09:46:34;101014.03;;;30.54;53.17
6144;BME280;3103;49.492;8.474;2023-08-20T09:49:03;101005.00;;;30.72;52.79
6144;BME280;3103;49.492;8.474;2023-08-20T09:51:33;101007.06;;;30.76;53.17
6144;BME280;3103;49.492;8.474;2023-08-20T09:54:14;101011.06;;;30.78;53.40
6144;BME280;3103;49.492;8.474;2023-08-20T09:56:46;101002.16;;;30.69;51.75
6144;BME280;3103;49.492;8.474;2023-08-20T09:59:16;101001.06;;;30.73;51.42
6144;BME280;3103;49.492;8.474;2023-08-20T10:01:44;100997.94;;;30.75;51.34
6144;BME280;3103;49.492;8.474;2023-08-20T10:04:11;100997.69;;;30.64;51.44
6144;BME280;3103;49.492;8.474;2023-08-20T10:06:40;100998.16;;;30.86;49.99
6144;BME280;3103;49.492;8.474;2023-08-20T10:09:08;100985.25;;;30.93;50.43
6144;BME280;3103;49.492;8.474;2023-08-20T10:11:35;100992.75;;;30.58;50.22
6144;BME280;3103;49.492;8.474;2023-08-20T10:14:04;100989.16;;;30.73;51.17
6144;BME280;3103;49.492;8.474;2023-08-20T10:16:33;100993.66;;;30.97;50.59
6144;BME280;3103;49.492;8.474;2023-08-20T10:19:05;100990.34;;;30.91;50.03
6144;BME280;3103;49.492;8.474;2023-08-20T10:21:32;100983.00;;;30.99;50.13
6144;BME280;3103;49.492;8.474;2023-08-20T10:24:06;100982.75;;;30.88;50.14
6144;BME280;3103;49.492;8.474;2023-08-20T10:26:33;100990.47;;;30.79;49.79
6144;BME280;3103;49.492;8.474;2023-08-20T10:29:36;100983.41;;;30.82;49.86
6144;BME280;3103;49.492;8.474;2023-08-20T10:32:11;100986.41;;;30.73;51.13
6144;BME280;3103;49.492;8.474;2023-08-20T10:34:42;100984.25;;;30.66;49.67
6144;BME280;3103;49.492;8.474;2023-08-20T10:37:13;100986.19;;;30.82;50.44
6144;BME280;3103;49.492;8.474;2023-08-20T10:39:41;100980.78;;;30.89;50.27
6144;BME280;3103;49.492;8.474;2023-08-20T10:42:40;100982.25;;;30.83;50.80
6144;BME280;3103;49.492;8.474;2023-08-20T10:45:05;100987.28;;;30.96;50.19
6144;BME280;3103;49.492;8.474;2023-08-20T10:50:09;100985.59;;;30.72;49.54
6144;BME280;3103;49.492;8.474;2023-08-20T10:52:41;100980.34;;;30.87;49.36
6144;BME280;3103;49.492;8.474;2023-08-20T10:55:13;100977.03;;;30.46;49.77
6144;BME280;3103;49.492;8.474;2023-08-20T10:57:41;100978.47;;;30.56;49.71
6144;BME280;3103;49.492;8.474;2023-08-20T11:00:09;100981.03;;;30.64;49.87
6144;BME280;3103;49.492;8.474;2023-08-20T11:02:42;100970.69;;;30.81;49.74
6144;BME280;3103;49.492;8.474;2023-08-20T11:05:17;100975.25;;;30.89;49.05
6144;BME280;3103;49.492;8.474;2023-08-20T11:07:45;100972.41;;;30.85;51.23
6144;BME280;3103;49.492;8.474;2023-08-20T11:10:17;100972.31;;;30.82;49.75
6144;BME280;3103;49.492;8.474;2023-08-20T11:12:46;100968.53;;;30.90;49.89
6144;BME280;3103;49.492;8.474;2023-08-20T11:15:13;100977.22;;;30.88;50.06
6144;BME280;3103;49.492;8.474;2023-08-20T11:17:49;100970.25;;;30.79;50.24
6144;BME280;3103;49.492;8.474;2023-08-20T11:20:18;100967.66;;;30.86;50.26
6144;BME280;3103;49.492;8.474;2023-08-20T11:22:46;100967.72;;;30.89;49.71
6144;BME280;3103;49.492;8.474;2023-08-20T11:25:13;100962.19;;;30.89;49.28
6144;BME280;3103;49.492;8.474;2023-08-20T11:27:41;100973.41;;;30.96;49.72
6144;BME280;3103;49.492;8.474;2023-08-20T11:30:09;100977.66;;;31.10;50.20
6144;BME280;3103;49.492;8.474;2023-08-20T11:32:40;100974.97;;;31.13;49.62
6144;BME280;3103;49.492;8.474;2023-08-20T11:35:07;100967.34;;;31.10;49.80
6144;BME280;3103;49.492;8.474;2023-08-20T11:37:35;100969.19;;;31.22;50.16
6144;BME280;3103;49.492;8.474;2023-08-20T11:40:02;100971.44;;;31.16;49.51
6144;BME280;3103;49.492;8.474;2023-08-20T11:42:33;100966.84;;;31.05;49.50
6144;BME280;3103;49.492;8.474;2023-08-20T11:45:00;100976.72;;;30.83;48.75
6144;BME280;3103;49.492;8.474;2023-08-20T11:47:29;100968.16;;;30.91;48.62
6144;BME280;3103;49.492;8.474;2023-08-20T11:50:05;100970.72;;;31.00;50.10
6144;BME280;3103;49.492;8.474;2023-08-20T11:52:33;100957.94;;;30.95;50.79
6144;BME280;3103;49.492;8.474;2023-08-20T11:55:00;100957.72;;;30.85;50.65
6144;BME280;3103;49.492;8.474;2023-08-20T11:57:30;100959.53;;;30.96;50.51
6144;BME280;3103;49.492;8.474;2023-08-20T12:00:04;100965.03;;;30.93;50.81
6144;BME280;3103;49.492;8.474;2023-08-20T12:02:42;100962.03;;;31.01;50.23
6144;BME280;3103;49.492;8.474;2023-08-20T12:05:10;100953.72;;;31.01;50.38
6144;BME280;3103;49.492;8.474;2023-08-20T12:07:37;100945.81;;;31.03;49.94
6144;BME280;3103;49.492;8.474;2023-08-20T12:10:23;100949.41;;;31.04;49.19
6144;BME280;3103;49.492;8.474;2023-08-20T12:12:51;100938.25;;;31.00;49.34
6144;BME280;3103;49.492;8.474;2023-08-20T12:15:19;100935.97;;;31.06;50.17
6144;BME280;3103;49.492;8.474;2023-08-20T12:18:18;100937.06;;;31.01;49.14
6144;BME280;3103;49.492;8.474;2023-08-20T12:20:45;100942.19;;;30.99;50.48
6144;BME280;3103;49.492;8.474;2023-08-20T12:23:13;100937.22;;;30.89;50.69
6144;BME280;3103;49.492;8.474;2023-08-20T12:25:39;100939.97;;;30.89;50.25
6144;BME280;3103;49.492;8.474;2023-08-20T12:28:06;100938.97;;;30.97;50.32
6144;BME280;3103;49.492;8.474;2023-08-20T12:30:34;100934.94;;;30.95;50.62
6144;BME280;3103;49.492;8.474;2023-08-20T12:33:05;100933.34;;;30.94;50.84
6144;BME280;3103;49.492;8.474;2023-08-20T12:35:33;100933.28;;;30.90;51.81
6144;BME280;3103;49.492;8.474;2023-08-20T12:38:01;100940.84;;;30.93;50.71
6144;BME280;3103;49.492;8.474;2023-08-20T12:40:28;100939.19;;;30.89;51.16
6144;BME280;3103;49.492;8.474;2023-08-20T12:42:55;100932.16;;;30.95;49.88
6144;BME280;3103;49.492;8.474;2023-08-20T12:45:22;100932.25;;;30.98;49.15
6144;BME280;3103;49.492;8.474;2023-08-20T12:47:49;100930.41;;;31.06;48.86
6144;BME280;3103;49.492;8.474;2023-08-20T12:50:16;100920.69;;;30.96;49.87
6144;BME280;3103;49.492;8.474;2023-08-20T12:52:43;100925.25;;;30.85;50.43
6144;BME280;3103;49.492;8.474;2023-08-20T12:55:10;100926.34;;;31.00;48.82
6144;BME280;3103;49.492;8.474;2023-08-20T12:57:54;100921.97;;;30.99;49.98
6144;BME280;3103;49.492;8.474;2023-08-20T13:00:23;100919.91;;;30.96;48.21
6144;BME280;3103;49.492;8.474;2023-08-20T13:02:54;100922.75;;;30.99;49.37
6144;BME280;3103;49.492;8.474;2023-08-20T13:05:23;100914.50;;;31.03;48.54
6144;BME280;3103;49.492;8.474;2023-08-20T13:07:50;100916.84;;;31.01;47.71
6144;BME280;3103;49.492;8.474;2023-08-20T13:10:17;100908.28;;;31.10;48.00
6144;BME280;3103;49.492;8.474;2023-08-20T13:12:48;100918.56;;;31.09;47.58
6144;BME280;3103;49.492;8.474;2023-08-20T13:15:17;100915.28;;;31.23;47.87
6144;BME280;3103;49.492;8.474;2023-08-20T13:17:46;100908.88;;;31.19;46.96
6144;BME280;3103;49.492;8.474;2023-08-20T13:20:13;100911.00;;;31.25;48.22
6144;BME280;3103;49.492;8.474;2023-08-20T13:22:41;100912.25;;;31.28;47.49